createdAt,value
2022-12-03T00:55:36.812Z,3.03
2022-12-03T00:59:06.057Z,4.90
2022-12-03T01:02:18.389Z,4.22
2022-12-03T01:05:30.077Z,4.95
2022-12-03T01:08:42.642Z,4.38
2022-12-03T01:11:55.668Z,5.30
2022-12-03T01:15:14.936Z,3.92
2022-12-03T01:18:33.795Z,3.80
2022-12-03T01:22:02.912Z,3.60
2022-12-03T01:25:27.816Z,3.80
2022-12-03T01:28:54.146Z,3.42
2022-12-03T01:32:25.502Z,2.60
2022-12-03T01:35:53.901Z,6.15
2022-12-03T01:39:19.603Z,3.60
2022-12-03T01:42:49.843Z,3.78
2022-12-03T01:46:16.656Z,4.03
2022-12-03T01:49:56.441Z,2.80
2022-12-03T01:53:49.537Z,2.65
2022-12-03T01:57:09.079Z,3.40
2022-12-03T02:00:24.261Z,4.22
2022-12-03T02:03:39.914Z,3.70
2022-12-03T02:06:51.153Z,3.67
2022-12-03T02:09:58.130Z,3.85
2022-12-03T02:13:11.926Z,3.75
2022-12-03T02:16:39.574Z,2.33
2022-12-03T02:19:50.308Z,2.38
2022-12-03T02:23:19.774Z,4.43
2022-12-03T02:26:23.154Z,3.13
2022-12-03T02:29:26.746Z,2.55
2022-12-03T02:32:30.137Z,4.10
2022-12-03T02:35:36.841Z,1.98
2022-12-03T02:38:42.327Z,3.57
2022-12-03T02:42:04.421Z,2.42
2022-12-03T02:45:11.279Z,2.42
2022-12-03T02:51:24.747Z,1.80
2022-12-03T02:54:28.504Z,3.08
2022-12-03T02:57:31.945Z,3.25
2022-12-03T03:00:36.724Z,2.63
2022-12-03T03:03:41.164Z,2.40
2022-12-03T03:06:45.218Z,3.15
2022-12-03T03:09:48.853Z,3.53
2022-12-03T03:12:54.774Z,2.05
2022-12-03T03:15:59.155Z,3.40
2022-12-03T03:19:03.249Z,2.88
2022-12-03T03:22:07.427Z,3.00
2022-12-03T03:25:21.973Z,4.43
2022-12-03T03:31:43.571Z,4.55
2022-12-03T03:34:48.369Z,4.25
2022-12-03T03:37:52.535Z,4.05
2022-12-03T03:40:58.837Z,3.20
2022-12-03T03:44:02.044Z,2.70
2022-12-03T03:47:07.555Z,3.42
2022-12-03T03:50:13.712Z,4.35
2022-12-03T03:53:18.695Z,3.58
2022-12-03T03:56:23.502Z,2.97
2022-12-03T03:59:27.277Z,3.50
2022-12-03T04:02:33.052Z,4.65
2022-12-03T04:05:36.015Z,5.13
2022-12-03T04:08:39.390Z,4.25
2022-12-03T04:12:01.634Z,5.70
2022-12-03T04:15:06.452Z,3.88
2022-12-03T04:18:28.092Z,4.72
2022-12-03T04:21:49.897Z,2.13
2022-12-03T04:25:13.499Z,2.47
2022-12-03T04:28:35.661Z,2.95
2022-12-03T04:32:17.435Z,3.10
2022-12-03T04:35:39.959Z,2.33
2022-12-03T04:38:44.935Z,4.53
2022-12-03T04:41:49.061Z,5.00
2022-12-03T04:44:53.106Z,3.15
2022-12-03T04:47:56.875Z,2.22
2022-12-03T04:51:00.773Z,2.92
2022-12-03T04:54:04.511Z,1.88
2022-12-03T04:57:08.421Z,3.42
2022-12-03T05:00:12.132Z,2.85
2022-12-03T05:03:16.191Z,2.40
2022-12-03T05:06:19.383Z,1.20
2022-12-03T05:09:22.941Z,1.63
2022-12-03T05:12:26.642Z,2.95
2022-12-03T05:15:30.220Z,1.75
2022-12-03T05:18:33.131Z,2.20
2022-12-03T05:21:36.757Z,3.00
2022-12-03T05:24:40.415Z,2.20
2022-12-03T05:27:44.354Z,2.75
2022-12-03T05:30:48.176Z,1.98
2022-12-03T05:33:52.477Z,2.78
2022-12-03T05:36:56.243Z,3.17
2022-12-03T05:40:02.599Z,2.45
2022-12-03T05:43:06.034Z,3.70
2022-12-03T05:46:09.380Z,2.33
2022-12-03T05:49:13.028Z,2.42
2022-12-03T05:52:17.052Z,1.77
2022-12-03T05:55:20.591Z,1.75
2022-12-03T05:58:23.744Z,2.38
2022-12-03T06:01:26.760Z,1.75
2022-12-03T06:04:30.664Z,2.42
2022-12-03T06:07:33.998Z,2.00
2022-12-03T06:10:38.387Z,1.60
2022-12-03T06:13:41.632Z,2.10
2022-12-03T06:16:45.004Z,2.22
2022-12-03T06:19:48.191Z,2.08
2022-12-03T06:22:51.418Z,1.90
2022-12-03T06:25:54.449Z,1.90
2022-12-03T06:28:58.161Z,2.58
2022-12-03T06:32:01.098Z,2.63
2022-12-03T06:35:04.512Z,2.63
2022-12-03T06:38:07.764Z,2.05
2022-12-03T06:41:11.791Z,1.88
2022-12-03T06:44:15.901Z,2.30
2022-12-03T06:47:19.603Z,2.45
2022-12-03T06:50:23.315Z,2.03
2022-12-03T06:53:27.138Z,2.13
2022-12-03T06:56:35.864Z,2.50
2022-12-03T06:59:41.226Z,2.40
2022-12-03T07:02:45.329Z,1.55
2022-12-03T07:05:49.797Z,3.60
2022-12-03T07:08:53.236Z,2.17
2022-12-03T07:11:57.387Z,1.80
2022-12-03T07:15:00.473Z,2.15
2022-12-03T07:18:05.600Z,2.35
2022-12-03T07:21:08.797Z,1.83
2022-12-03T07:24:13.257Z,2.63
2022-12-03T07:27:17.037Z,1.40
2022-12-03T07:30:20.558Z,2.15
2022-12-03T07:33:24.480Z,2.28
2022-12-03T07:36:28.185Z,2.30
2022-12-03T07:39:32.150Z,2.53
2022-12-03T07:42:37.847Z,3.58
2022-12-03T07:45:41.016Z,3.78
2022-12-03T07:48:44.738Z,3.28
2022-12-03T07:51:54.493Z,6.88
2022-12-03T07:54:58.557Z,7.18
2022-12-03T07:58:02.487Z,7.53
2022-12-03T08:01:05.937Z,1.83
2022-12-03T08:04:10.268Z,6.13
2022-12-03T08:07:13.885Z,4.40
2022-12-03T08:10:18.001Z,5.93
2022-12-03T08:13:20.858Z,8.65
2022-12-03T08:16:24.808Z,7.68
2022-12-03T08:19:28.535Z,7.60
2022-12-03T08:22:34.913Z,6.10
2022-12-03T08:25:38.538Z,5.93
2022-12-03T08:28:41.930Z,8.48
2022-12-03T08:31:52.550Z,4.80
2022-12-03T08:34:56.120Z,3.40
2022-12-03T08:38:10.520Z,5.40
2022-12-03T08:41:16.966Z,9.13
2022-12-03T08:44:43.243Z,4.35
2022-12-03T08:47:47.154Z,6.28
2022-12-03T08:50:50.881Z,3.70
2022-12-03T08:54:18.638Z,5.45
2022-12-03T08:57:31.681Z,7.07
2022-12-03T09:00:34.678Z,5.53
2022-12-03T09:03:40.893Z,5.47
2022-12-03T09:06:44.526Z,4.57
2022-12-03T09:09:48.122Z,7.97
2022-12-03T09:12:51.722Z,12.05
2022-12-03T09:15:54.766Z,18.08
2022-12-03T09:18:58.352Z,6.07
2022-12-03T09:22:01.303Z,6.95
2022-12-03T09:25:04.420Z,4.57
2022-12-03T09:28:09.176Z,4.82
2022-12-03T09:31:12.902Z,2.75
2022-12-03T09:34:16.511Z,2.22
2022-12-03T09:37:20.139Z,2.13
2022-12-03T09:40:24.133Z,2.95
2022-12-03T09:43:49.477Z,4.93
2022-12-03T09:46:54.499Z,3.60
2022-12-03T09:49:59.021Z,3.30
2022-12-03T09:53:04.438Z,2.50
2022-12-03T09:56:16.660Z,3.40
2022-12-03T09:59:21.608Z,5.32
2022-12-03T10:02:30.624Z,2.92
2022-12-03T10:05:35.349Z,2.38
2022-12-03T10:08:39.041Z,3.25
2022-12-03T10:11:43.020Z,5.78
2022-12-03T10:14:47.277Z,6.50
2022-12-03T10:17:52.842Z,5.90
2022-12-03T10:20:57.020Z,2.47
2022-12-03T10:24:21.146Z,4.45
2022-12-03T10:27:31.048Z,3.83
2022-12-03T10:30:34.411Z,2.58
2022-12-03T10:33:40.449Z,4.70
2022-12-03T10:36:44.423Z,4.35
2022-12-03T10:39:59.425Z,4.28
2022-12-03T10:43:25.243Z,3.33
2022-12-03T10:46:29.123Z,3.58
2022-12-03T10:49:32.865Z,2.40
2022-12-03T10:52:37.520Z,2.58
2022-12-03T10:55:44.016Z,2.75
2022-12-03T10:58:47.780Z,2.92
2022-12-03T11:01:53.956Z,2.88
2022-12-03T11:04:57.895Z,2.40
2022-12-03T11:08:01.283Z,2.00
2022-12-03T11:11:08.079Z,1.75
2022-12-03T11:14:13.961Z,2.17
2022-12-03T11:17:43.306Z,2.45
2022-12-03T11:21:12.065Z,1.67
2022-12-03T11:24:25.987Z,2.83
2022-12-03T11:27:29.434Z,1.70
2022-12-03T11:30:51.343Z,2.88
2022-12-03T11:34:20.567Z,1.73
2022-12-03T11:37:26.003Z,2.47
2022-12-03T11:40:33.489Z,1.60
2022-12-03T11:43:53.646Z,1.77
2022-12-03T11:46:59.480Z,2.57
2022-12-03T11:50:13.218Z,1.60
2022-12-03T11:53:26.449Z,1.77
2022-12-03T11:56:30.977Z,2.47
2022-12-03T11:59:34.716Z,2.47
2022-12-03T12:02:38.654Z,3.90
2022-12-03T12:05:42.462Z,4.25
2022-12-03T12:08:52.546Z,2.65
2022-12-03T12:11:56.456Z,2.95
2022-12-03T12:15:00.804Z,7.53
2022-12-03T12:18:40.127Z,7.03
2022-12-03T12:21:49.110Z,7.63
2022-12-03T12:25:01.351Z,6.53
2022-12-03T12:28:05.066Z,6.63
2022-12-03T12:31:12.608Z,3.20
2022-12-03T12:34:17.272Z,5.55
2022-12-03T12:37:24.255Z,4.30
2022-12-03T12:40:30.904Z,4.10
2022-12-03T12:43:36.582Z,3.20
2022-12-03T12:47:02.431Z,4.70
2022-12-03T12:50:16.461Z,2.83
2022-12-03T12:53:27.559Z,3.72
2022-12-03T12:56:35.915Z,3.22
2022-12-03T12:59:41.526Z,2.85
2022-12-03T13:02:57.802Z,3.17
2022-12-03T13:06:03.598Z,3.40
2022-12-03T13:09:36.678Z,2.63
2022-12-03T13:12:40.454Z,5.65
2022-12-03T13:15:54.628Z,3.92
2022-12-03T13:19:00.912Z,3.70
2022-12-03T13:22:15.871Z,3.22
2022-12-03T13:25:59.174Z,2.33
2022-12-03T13:29:07.504Z,3.55
2022-12-03T13:32:36.861Z,3.80
2022-12-03T13:35:40.609Z,3.25
2022-12-03T13:38:45.888Z,3.47
2022-12-03T13:42:09.200Z,4.93
2022-12-03T13:45:16.262Z,4.15
2022-12-03T13:48:24.201Z,5.20
2022-12-03T13:51:33.570Z,3.45
2022-12-03T13:54:39.814Z,4.05
2022-12-03T13:57:43.696Z,2.72
2022-12-03T14:00:47.579Z,3.95
2022-12-03T14:03:51.921Z,2.85
2022-12-03T14:06:55.651Z,3.47
2022-12-03T14:09:59.276Z,4.47
2022-12-03T14:13:02.981Z,3.42
2022-12-03T14:16:07.138Z,4.43
2022-12-03T14:19:10.815Z,6.00
2022-12-03T14:22:14.738Z,4.72
2022-12-03T14:25:18.351Z,4.50
2022-12-03T14:28:22.408Z,5.28
2022-12-03T14:31:28.747Z,3.97
2022-12-03T14:34:32.812Z,2.92
2022-12-03T14:37:36.514Z,5.57
2022-12-03T14:40:39.771Z,6.57
2022-12-03T14:43:43.796Z,4.60
2022-12-03T14:46:47.598Z,3.20
2022-12-03T14:49:52.729Z,3.38
2022-12-03T14:52:56.786Z,4.53
2022-12-03T14:56:00.827Z,2.88
2022-12-03T14:59:04.257Z,4.00
2022-12-03T15:02:08.195Z,5.20
2022-12-03T15:05:13.300Z,3.88
2022-12-03T15:08:17.025Z,6.97
2022-12-03T15:11:20.898Z,10.30
2022-12-03T15:14:24.025Z,4.68
2022-12-03T15:17:31.718Z,5.05
2022-12-03T15:20:36.230Z,6.40
2022-12-03T15:23:40.433Z,4.50
2022-12-03T15:26:44.274Z,4.20
2022-12-03T15:29:48.370Z,5.45
2022-12-03T15:32:51.344Z,7.20
2022-12-03T15:35:55.658Z,4.65
2022-12-03T15:38:59.310Z,7.00
2022-12-03T15:42:03.044Z,5.88
2022-12-03T15:45:10.720Z,6.78
2022-12-03T15:48:18.519Z,2.95
2022-12-03T15:51:22.399Z,3.38
2022-12-03T15:54:25.303Z,4.40
2022-12-03T15:57:28.217Z,3.53
2022-12-03T16:00:32.187Z,3.10
2022-12-03T16:03:36.198Z,2.20
2022-12-03T16:06:40.145Z,3.38
2022-12-03T16:09:43.793Z,4.07
2022-12-03T16:12:47.955Z,5.60
2022-12-03T16:15:51.549Z,6.35
2022-12-03T16:18:55.193Z,4.22
2022-12-03T16:21:58.601Z,3.50
2022-12-03T16:25:02.192Z,5.00
2022-12-03T16:28:05.493Z,2.65
2022-12-03T16:31:09.339Z,4.60
2022-12-03T16:34:14.505Z,2.55
2022-12-03T16:37:18.152Z,4.47
2022-12-03T16:40:26.559Z,3.20
2022-12-03T16:43:36.168Z,3.72
2022-12-03T16:49:43.387Z,2.05
2022-12-03T16:52:48.308Z,1.75
2022-12-03T16:55:52.221Z,2.50
2022-12-03T16:58:56.259Z,1.77
2022-12-03T17:01:59.948Z,2.63
2022-12-03T17:05:03.894Z,1.98
2022-12-03T17:08:07.793Z,2.75
2022-12-03T17:11:11.188Z,5.97
2022-12-03T17:14:15.183Z,7.28
2022-12-03T17:17:18.906Z,4.55
2022-12-03T17:20:22.665Z,6.47
2022-12-03T17:23:26.908Z,3.70
2022-12-03T17:26:30.517Z,3.50
2022-12-03T17:29:33.638Z,4.07
2022-12-03T17:32:38.053Z,2.22
2022-12-03T17:35:41.885Z,2.63
2022-12-03T17:38:45.207Z,2.80
2022-12-03T17:41:48.919Z,2.85
2022-12-03T17:44:52.288Z,2.67
2022-12-03T17:47:55.258Z,3.78
2022-12-03T17:51:02.324Z,3.20
2022-12-03T17:54:05.763Z,2.60
2022-12-03T17:57:09.710Z,3.17
2022-12-03T18:00:13.655Z,1.75
2022-12-03T18:03:18.151Z,2.58
2022-12-03T18:06:21.834Z,3.00
2022-12-03T18:09:25.791Z,2.25
2022-12-03T18:12:29.262Z,2.70
2022-12-03T18:15:33.230Z,3.03
2022-12-03T18:18:36.650Z,2.75
2022-12-03T18:21:40.728Z,2.35
2022-12-03T18:24:46.246Z,1.60
2022-12-03T18:27:51.692Z,2.13
2022-12-03T18:30:55.128Z,2.50
2022-12-03T18:33:58.845Z,2.05
2022-12-03T18:37:03.541Z,2.33
2022-12-03T18:40:12.690Z,1.73
2022-12-03T18:43:18.088Z,2.35
2022-12-03T18:49:45.536Z,1.60
2022-12-03T18:52:49.154Z,2.00
2022-12-03T18:55:52.699Z,2.60
2022-12-03T18:58:56.244Z,1.77
2022-12-03T19:02:00.648Z,2.70
2022-12-03T19:05:04.527Z,2.35
2022-12-03T19:08:15.251Z,2.63
2022-12-03T19:11:18.651Z,2.22
2022-12-03T19:14:22.724Z,2.80
2022-12-03T19:17:27.629Z,1.67
2022-12-03T19:20:31.580Z,1.42
2022-12-03T19:23:36.472Z,2.50
2022-12-03T19:26:40.120Z,4.10
2022-12-03T19:29:43.735Z,2.38
2022-12-03T19:32:49.407Z,3.42
2022-12-03T19:35:56.097Z,2.30
2022-12-03T19:39:00.592Z,2.20
2022-12-03T19:42:04.790Z,2.85
2022-12-03T19:45:09.747Z,2.15
2022-12-03T19:48:12.740Z,2.42
2022-12-03T19:51:33.634Z,1.88
2022-12-03T19:54:38.565Z,2.28
2022-12-03T19:57:42.006Z,1.70
2022-12-03T20:00:45.641Z,3.20
2022-12-03T20:03:51.473Z,3.17
2022-12-03T20:06:55.149Z,2.72
2022-12-03T20:09:58.475Z,2.80
2022-12-03T20:13:02.299Z,2.25
2022-12-03T20:16:13.030Z,3.38
2022-12-03T20:19:18.319Z,3.00
2022-12-03T20:22:21.944Z,3.42
2022-12-03T20:25:26.166Z,3.20
2022-12-03T20:28:30.210Z,2.30
2022-12-03T20:31:33.859Z,2.33
2022-12-03T20:34:37.704Z,2.67
2022-12-03T20:37:41.413Z,4.95
2022-12-03T20:40:44.756Z,4.82
2022-12-03T20:43:48.803Z,2.40
2022-12-03T20:46:52.746Z,2.30
2022-12-03T20:49:56.348Z,3.20
2022-12-03T20:53:23.267Z,3.97
2022-12-03T20:56:27.171Z,2.28
2022-12-03T20:59:30.649Z,2.92
2022-12-03T21:02:34.517Z,2.58
2022-12-03T21:05:38.153Z,3.47
2022-12-03T21:08:43.135Z,3.22
2022-12-03T21:11:47.065Z,2.78
2022-12-03T21:14:50.923Z,3.55
2022-12-03T21:17:54.486Z,2.70
2022-12-03T21:21:00.919Z,3.10
2022-12-03T21:24:04.670Z,3.30
2022-12-03T21:27:07.945Z,3.35
2022-12-03T21:30:12.221Z,4.13
2022-12-03T21:33:15.597Z,2.60
2022-12-03T21:36:19.421Z,2.45
2022-12-03T21:39:23.345Z,2.67
2022-12-03T21:42:35.261Z,3.30
2022-12-03T21:45:42.261Z,2.20
2022-12-03T21:48:46.146Z,2.67
2022-12-03T21:51:49.939Z,2.78
2022-12-03T21:54:53.953Z,2.40
2022-12-03T21:57:57.819Z,3.80
2022-12-03T22:01:01.711Z,1.98
2022-12-03T22:04:05.682Z,4.55
2022-12-03T22:07:09.376Z,3.67
2022-12-03T22:10:13.975Z,2.60
2022-12-03T22:13:17.708Z,5.30
2022-12-03T22:16:22.652Z,5.20
2022-12-03T22:19:27.218Z,4.53
2022-12-03T22:22:30.595Z,3.00
2022-12-03T22:25:34.354Z,3.55
2022-12-03T22:28:38.408Z,3.25
2022-12-03T22:31:41.747Z,4.50
2022-12-03T22:34:45.496Z,3.60
2022-12-03T22:37:49.195Z,2.70
2022-12-03T22:40:53.068Z,2.90
2022-12-03T22:43:57.019Z,2.47
2022-12-03T22:47:00.723Z,2.72
2022-12-03T22:50:04.300Z,2.70
2022-12-03T22:53:07.589Z,3.28
2022-12-03T22:56:11.245Z,2.65
2022-12-03T22:59:15.204Z,3.90
2022-12-03T23:02:18.458Z,3.85
2022-12-03T23:05:22.109Z,3.85
2022-12-03T23:08:25.711Z,3.70
2022-12-03T23:11:29.991Z,4.60
2022-12-03T23:14:33.308Z,3.47
2022-12-03T23:17:37.243Z,4.32
2022-12-03T23:20:58.840Z,2.53
2022-12-03T23:24:04.953Z,2.72
2022-12-03T23:27:07.926Z,6.57
2022-12-03T23:30:13.525Z,7.45
2022-12-03T23:33:17.502Z,4.72
2022-12-03T23:36:22.062Z,6.32
2022-12-03T23:39:25.014Z,6.38
2022-12-03T23:42:28.650Z,4.60
2022-12-03T23:45:33.346Z,3.53
2022-12-03T23:48:37.829Z,4.78
2022-12-03T23:51:41.503Z,3.80
2022-12-03T23:54:45.540Z,7.95
2022-12-03T23:57:49.124Z,2.70
